METAR Data
IDs: Format: Raw Decoded Include TAF

Data at: 0754 UTC 07 Dec 2022

KTTD 070653Z AUTO 00000KT 7SM OVC049 04/02 A3022 RMK AO2 SLP232 T00440022
KTTD 070553Z AUTO 10003KT 7SM OVC050 04/02 A3021 RMK AO2 SLP230 T00440017 10067 20044 51006
KTTD 070453Z 00000KT 7SM OVC050 05/02 A3021 RMK AO2 SLP229 T00500022
KTTD 070353Z 00000KT 8SM OVC050 06/02 A3020 RMK AO2 SLP226 T00560022
KTTD 070253Z 00000KT 8SM OVC055 05/02 A3019 RMK AO2 SLP224 T00500022 53004
KTTD 070153Z 00000KT 9SM OVC055 06/02 A3019 RMK AO2 SLP223 T00560022
KTTD 070053Z 00000KT 9SM OVC055 06/02 A3018 RMK AO2 SLP220 T00610022
KTTD 062353Z 00000KT 8SM OVC055 06/02 A3018 RMK AO2 SLP220 T00610022 10067 20039 53000
KTTD 062253Z 00000KT 7SM OVC055 07/03 A3018 RMK AO2 SLP219 T00670028
KTTD 062153Z 00000KT 8SM OVC060 07/03 A3018 RMK AO2 SLP220 T00670028
KTTD 062053Z 00000KT 7SM FEW011 OVC055 06/02 A3018 RMK AO2 SLP220 T00560022 58001
KTTD 061953Z 00000KT 9SM FEW010 OVC055 06/02 A3019 RMK AO2 SLP223 T00560022
KTTD 061853Z 00000KT 9SM FEW009 SCT046 OVC055 05/02 A3020 RMK AO2 SLP225 T00500022
KTTD 061753Z 00000KT 9SM OVC050 04/01 A3018 RMK AO2 SLP221 T00390011 10039 20017 53011
KTTD 061653Z 10003KT 8SM FEW047 OVC055 03/01 A3017 RMK AO2 SLP215 T00280006
KTTD 061606Z 10003KT 7SM SCT007 OVC060 02/M01 A3016 RMK AO2 T00221006
KTTD 061553Z 00000KT 8SM BKN007 OVC055 02/M01 A3016 RMK AO2 SLP212 T00221006
KTTD 061453Z 00000KT 8SM BKN009 BKN037 OVC055 02/M01 A3015 RMK AO2 SLP210 T00221006 53008
KTTD 061353Z AUTO 00000KT 9SM BKN008 BKN014 OVC060 02/M01 A3014 RMK AO2 SLP206 T00171006
KTTD 061346Z AUTO 00000KT 9SM FEW008 BKN014 OVC060 02/M01 A3014 RMK AO2 T00171006
KTTD 061253Z AUTO 00000KT 9SM SCT012 OVC055 02/M01 A3013 RMK AO2 SLP202 T00171006
KTTD 061236Z AUTO 00000KT 9SM SCT007 BKN011 OVC060 02/M01 A3013 RMK AO2 T00221006
KTTD 061214Z AUTO 06004KT 9SM BKN007 OVC055 02/M01 A3013 RMK AO2 T00221006
KTTD 061202Z AUTO 00000KT 9SM SCT007 OVC055 02/M01 A3013 RMK AO2 T00221006
KTTD 061153Z AUTO 06003KT 9SM OVC055 02/M01 A3013 RMK AO2 SLP201 60000 T00171011 10022 20017 50001
KTTD 061122Z AUTO 10005KT 9SM SCT008 OVC050 02/M01 A3013 RMK AO2 T00171006
KTTD 061053Z AUTO 08003KT 9SM BKN008 OVC055 02/M01 A3014 RMK AO2 UPB06E22 SLP205 P0000 T00221006
KTTD 061048Z AUTO 08005KT 9SM BKN008 OVC055 02/M01 A3014 RMK AO2 UPB06E22 P0000
KTTD 061039Z AUTO 07003KT 9SM SCT008 OVC055 02/M01 A3014 RMK AO2 UPB06E22 P0000 T00171006
KTTD 060953Z AUTO 08004KT 10SM FEW015 BKN035 OVC050 02/M01 A3012 RMK AO2 RAE15UPB10E14 SLP201 P0000 T00171011
KTTD 060853Z AUTO 08006KT 7SM -RA BKN034 OVC043 02/M01 A3012 RMK AO2 UPB43E49RAB49 SLP198 P0000 60000 T00221011 51003
KTTD 060808Z AUTO 08004KT 10SM SCT016 BKN037 OVC048 02/M01 A3011 RMK AO2 T00171011
KTTD 060753Z AUTO 09006KT 10SM BKN016 OVC050 02/M02 A3011 RMK AO2 SLP197 T00171017 400440017
KTTD 060744Z AUTO 07005KT 10SM BKN016 OVC050 02/M02 A3012 RMK AO2 T00171017
KTTD 060714Z AUTO 08006KT 10SM SCT029 SCT036 OVC055 02/M02 A3011 RMK AO2 T00171017
KTTD 060653Z AUTO 09006KT 10SM BKN028 OVC047 02/M02 A3011 RMK AO2 SLP196 T00171017
KTTD 060649Z AUTO 08005KT 10SM BKN028 OVC047 02/M02 A3011 RMK AO2
KTTD 060553Z AUTO 07005KT 10SM SCT025 OVC046 02/M02 A3010 RMK AO2 SLP192 T00221017 10033 20017 52013
KTTD 060453Z 09006KT 10SM SCT015 OVC046 02/M02 A3009 RMK AO2 SLP187 T00221017
KTTD 060353Z 08008KT 10SM OVC044 02/M02 A3007 RMK AO2 SLP183 T00221017
KTTD 060253Z 09011KT 10SM OVC037 02/M02 A3006 RMK AO2 SLP179 T00221017 51011
KTTD 060209Z 09010KT 10SM SCT021 BKN039 02/M02 A3005 RMK AO2 T00221017
KTTD 060202Z 09011KT 10SM BKN021 BKN039 02/M02 A3005 RMK AO2 T00171017
KTTD 060153Z 09011KT 10SM SCT021 02/M02 A3005 RMK AO2 SLP177 T00171022
KTTD 060053Z 09012KT 10SM CLR 02/M02 A3004 RMK AO2 SLP171 T00221022
KTTD 052353Z 10012KT 10SM CLR 03/M02 A3003 RMK AO2 SLP167 T00331022 10044 20017 53005
KTTD 052253Z 10011KT 10SM CLR 04/M02 A3001 RMK AO2 SLP163 T00391017
KTTD 052153Z 10010KT 10SM CLR 04/M02 A3001 RMK AO2 SLP161 T00441017
KTTD 052053Z 10012KT 10SM CLR 04/M02 A3001 RMK AO2 SLP163 T00391017 58010